sensor_id;sensor_type;location;lat;lon;timestamp;temperature;humidity
60039;DHT22;45916;52.734;6.544;2023-04-01T00:00:23;9.80;99.90
60039;DHT22;45916;52.734;6.544;2023-04-01T00:02:48;9.80;99.90
60039;DHT22;45916;52.734;6.544;2023-04-01T00:05:14;9.80;99.90
60039;DHT22;45916;52.734;6.544;2023-04-01T00:07:41;9.80;99.90
60039;DHT22;45916;52.734;6.544;2023-04-01T00:10:09;9.80;99.90
60039;DHT22;45916;52.734;6.544;2023-04-01T00:12:36;9.80;99.90
60039;DHT22;45916;52.734;6.544;2023-04-01T00:15:03;9.80;99.90
60039;DHT22;45916;52.734;6.544;2023-04-01T00:17:29;9.70;99.90
60039;DHT22;45916;52.734;6.544;2023-04-01T00:19:55;9.70;99.90
60039;DHT22;45916;52.734;6.544;2023-04-01T00:22:22;9.70;99.90
60039;DHT22;45916;52.734;6.544;2023-04-01T00:24:48;9.70;99.90
60039;DHT22;45916;52.734;6.544;2023-04-01T00:27:14;9.70;99.90
60039;DHT22;45916;52.734;6.544;2023-04-01T00:29:45;9.70;99.90
60039;DHT22;45916;52.734;6.544;2023-04-01T00:32:11;9.60;99.90
60039;DHT22;45916;52.734;6.544;2023-04-01T00:34:37;9.60;99.90
60039;DHT22;45916;52.734;6.544;2023-04-01T00:37:03;9.60;99.90
60039;DHT22;45916;52.734;6.544;2023-04-01T00:39:30;9.70;99.90
60039;DHT22;45916;52.734;6.544;2023-04-01T00:41:56;9.60;99.90
60039;DHT22;45916;52.734;6.544;2023-04-01T00:44:30;9.60;99.90
60039;DHT22;45916;52.734;6.544;2023-04-01T00:46:57;9.60;99.90
60039;DHT22;45916;52.734;6.544;2023-04-01T00:49:27;9.60;99.90
60039;DHT22;45916;52.734;6.544;2023-04-01T00:51:57;9.60;99.90
60039;DHT22;45916;52.734;6.544;2023-04-01T00:54:26;9.60;99.90
60039;DHT22;45916;52.734;6.544;2023-04-01T00:57:10;9.60;99.90
60039;DHT22;45916;52.734;6.544;2023-04-01T00:59:41;9.60;99.90
60039;DHT22;45916;52.734;6.544;2023-04-01T01:02:09;9.60;99.90
60039;DHT22;45916;52.734;6.544;2023-04-01T01:04:35;9.60;99.90
60039;DHT22;45916;52.734;6.544;2023-04-01T01:12:31;9.60;99.90
60039;DHT22;45916;52.734;6.544;2023-04-01T01:15:25;9.70;99.90
60039;DHT22;45916;52.734;6.544;2023-04-01T01:20:40;9.60;99.90
60039;DHT22;45916;52.734;6.544;2023-04-01T01:26:40;9.60;99.90
60039;DHT22;45916;52.734;6.544;2023-04-01T01:36:35;9.70;99.90
60039;DHT22;45916;52.734;6.544;2023-04-01T01:39:05;9.70;99.90
60039;DHT22;45916;52.734;6.544;2023-04-01T01:41:32;9.70;99.90
60039;DHT22;45916;52.734;6.544;2023-04-01T01:44:03;9.70;99.90
60039;DHT22;45916;52.734;6.544;2023-04-01T01:46:30;9.70;99.90
60039;DHT22;45916;52.734;6.544;2023-04-01T01:48:57;9.70;99.90
60039;DHT22;45916;52.734;6.544;2023-04-01T01:51:26;9.70;99.90
60039;DHT22;45916;52.734;6.544;2023-04-01T01:53:52;9.70;99.90
60039;DHT22;45916;52.734;6.544;2023-04-01T01:56:20;9.70;99.90
60039;DHT22;45916;52.734;6.544;2023-04-01T01:58:54;9.70;99.90
60039;DHT22;45916;52.734;6.544;2023-04-01T02:01:24;9.70;99.90
60039;DHT22;45916;52.734;6.544;2023-04-01T02:03:52;9.70;99.90
60039;DHT22;45916;52.734;6.544;2023-04-01T02:06:21;9.70;99.90
60039;DHT22;45916;52.734;6.544;2023-04-01T02:08:56;9.70;99.90
60039;DHT22;45916;52.734;6.544;2023-04-01T02:14:03;9.70;99.90
60039;DHT22;45916;52.734;6.544;2023-04-01T02:16:42;9.70;99.90
60039;DHT22;45916;52.734;6.544;2023-04-01T02:19:10;9.70;99.90
60039;DHT22;45916;52.734;6.544;2023-04-01T02:21:39;9.70;99.90
60039;DHT22;45916;52.734;6.544;2023-04-01T02:24:09;9.70;99.90
60039;DHT22;45916;52.734;6.544;2023-04-01T02:26:35;9.70;99.90
60039;DHT22;45916;52.734;6.544;2023-04-01T02:29:02;9.70;99.90
60039;DHT22;45916;52.734;6.544;2023-04-01T02:31:29;9.60;99.90
60039;DHT22;45916;52.734;6.544;2023-04-01T02:33:56;9.70;99.90
60039;DHT22;45916;52.734;6.544;2023-04-01T02:36:22;9.70;99.90
60039;DHT22;45916;52.734;6.544;2023-04-01T02:38:49;9.70;99.90
60039;DHT22;45916;52.734;6.544;2023-04-01T02:41:16;9.70;99.90
60039;DHT22;45916;52.734;6.544;2023-04-01T02:43:42;9.70;99.90
60039;DHT22;45916;52.734;6.544;2023-04-01T02:46:07;9.60;99.90
60039;DHT22;45916;52.734;6.544;2023-04-01T02:48:33;9.60;99.90
60039;DHT22;45916;52.734;6.544;2023-04-01T02:50:59;9.70;99.90
60039;DHT22;45916;52.734;6.544;2023-04-01T02:53:25;9.60;99.90
60039;DHT22;45916;52.734;6.544;2023-04-01T02:55:50;9.60;99.90
60039;DHT22;45916;52.734;6.544;2023-04-01T02:58:17;9.70;99.90
60039;DHT22;45916;52.734;6.544;2023-04-01T03:00:44;9.60;99.90
60039;DHT22;45916;52.734;6.544;2023-04-01T03:03:10;9.70;99.90
60039;DHT22;45916;52.734;6.544;2023-04-01T03:05:36;9.70;99.90
60039;DHT22;45916;52.734;6.544;2023-04-01T03:08:02;9.70;99.90
60039;DHT22;45916;52.734;6.544;2023-04-01T03:10:28;9.70;99.90
60039;DHT22;45916;52.734;6.544;2023-04-01T03:12:53;9.70;99.90
60039;DHT22;45916;52.734;6.544;2023-04-01T03:15:19;9.70;99.90
60039;DHT22;45916;52.734;6.544;2023-04-01T03:17:45;9.70;99.90
60039;DHT22;45916;52.734;6.544;2023-04-01T03:20:12;9.70;99.90
60039;DHT22;45916;52.734;6.544;2023-04-01T03:22:38;9.70;99.90
60039;DHT22;45916;52.734;6.544;2023-04-01T03:25:06;9.70;99.90
60039;DHT22;45916;52.734;6.544;2023-04-01T03:27:33;9.70;99.90
60039;DHT22;45916;52.734;6.544;2023-04-01T03:30:01;9.70;99.90
60039;DHT22;45916;52.734;6.544;2023-04-01T03:32:27;9.70;99.90
60039;DHT22;45916;52.734;6.544;2023-04-01T03:34:53;9.70;99.90
60039;DHT22;45916;52.734;6.544;2023-04-01T03:37:18;9.70;99.90
60039;DHT22;45916;52.734;6.544;2023-04-01T03:39:44;9.70;99.90
60039;DHT22;45916;52.734;6.544;2023-04-01T03:42:11;9.70;99.90
60039;DHT22;45916;52.734;6.544;2023-04-01T03:44:37;9.70;99.90
60039;DHT22;45916;52.734;6.544;2023-04-01T03:47:03;9.70;99.90
60039;DHT22;45916;52.734;6.544;2023-04-01T03:49:28;9.80;99.90
60039;DHT22;45916;52.734;6.544;2023-04-01T03:51:54;9.70;99.90
60039;DHT22;45916;52.734;6.544;2023-04-01T03:54:20;9.80;99.90
60039;DHT22;45916;52.734;6.544;2023-04-01T03:56:46;9.70;99.90
60039;DHT22;45916;52.734;6.544;2023-04-01T03:59:12;9.70;99.90
60039;DHT22;45916;52.734;6.544;2023-04-01T04:01:38;9.70;99.90
60039;DHT22;45916;52.734;6.544;2023-04-01T04:04:04;9.70;99.90
60039;DHT22;45916;52.734;6.544;2023-04-01T04:06:30;9.70;99.90
60039;DHT22;45916;52.734;6.544;2023-04-01T04:08:56;9.70;99.90
60039;DHT22;45916;52.734;6.544;2023-04-01T04:11:22;9.70;99.90
60039;DHT22;45916;52.734;6.544;2023-04-01T04:13:48;9.70;99.90
60039;DHT22;45916;52.734;6.544;2023-04-01T04:16:14;9.70;99.90
60039;DHT22;45916;52.734;6.544;2023-04-01T04:18:40;9.70;99.90
60039;DHT22;45916;52.734;6.544;2023-04-01T04:21:06;9.70;99.90
60039;DHT22;45916;52.734;6.544;2023-04-01T04:23:32;9.70;99.90
60039;DHT22;45916;52.734;6.544;2023-04-01T04:26:00;9.70;99.90
60039;DHT22;45916;52.734;6.544;2023-04-01T04:28:27;9.70;99.90
60039;DHT22;45916;52.734;6.544;2023-04-01T04:30:53;9.70;99.90
60039;DHT22;45916;52.734;6.544;2023-04-01T04:33:21;9.70;99.90
60039;DHT22;45916;52.734;6.544;2023-04-01T04:35:47;9.70;99.90
60039;DHT22;45916;52.734;6.544;2023-04-01T04:38:13;9.70;99.90
60039;DHT22;45916;52.734;6.544;2023-04-01T04:40:39;9.80;99.90
60039;DHT22;45916;52.734;6.544;2023-04-01T04:43:05;9.70;99.90
60039;DHT22;45916;52.734;6.544;2023-04-01T04:45:31;9.70;99.90
60039;DHT22;45916;52.734;6.544;2023-04-01T04:47:57;9.70;99.90
60039;DHT22;45916;52.734;6.544;2023-04-01T04:50:24;9.70;99.90
60039;DHT22;45916;52.734;6.544;2023-04-01T04:52:51;9.70;99.90
60039;DHT22;45916;52.734;6.544;2023-04-01T04:55:17;9.70;99.90
60039;DHT22;45916;52.734;6.544;2023-04-01T04:57:42;9.80;99.90
60039;DHT22;45916;52.734;6.544;2023-04-01T05:00:08;9.80;99.90
60039;DHT22;45916;52.734;6.544;2023-04-01T05:02:36;9.70;99.90
60039;DHT22;45916;52.734;6.544;2023-04-01T05:05:01;9.70;99.90
60039;DHT22;45916;52.734;6.544;2023-04-01T05:07:27;9.70;99.90
60039;DHT22;45916;52.734;6.544;2023-04-01T05:09:53;9.70;99.90
60039;DHT22;45916;52.734;6.544;2023-04-01T05:12:18;9.70;99.90
60039;DHT22;45916;52.734;6.544;2023-04-01T05:14:44;9.70;99.90
60039;DHT22;45916;52.734;6.544;2023-04-01T05:17:11;9.70;99.90
60039;DHT22;45916;52.734;6.544;2023-04-01T05:19:37;9.70;99.90
60039;DHT22;45916;52.734;6.544;2023-04-01T05:22:03;9.80;99.90
60039;DHT22;45916;52.734;6.544;2023-04-01T05:24:30;9.80;99.90
60039;DHT22;45916;52.734;6.544;2023-04-01T05:26:56;9.70;99.90
60039;DHT22;45916;52.734;6.544;2023-04-01T05:29:23;9.80;99.90
60039;DHT22;45916;52.734;6.544;2023-04-01T05:31:49;9.80;99.90
60039;DHT22;45916;52.734;6.544;2023-04-01T05:34:15;9.80;99.90
60039;DHT22;45916;52.734;6.544;2023-04-01T05:36:41;9.80;99.90
60039;DHT22;45916;52.734;6.544;2023-04-01T05:39:07;9.80;99.90
60039;DHT22;45916;52.734;6.544;2023-04-01T05:41:37;9.80;99.90
60039;DHT22;45916;52.734;6.544;2023-04-01T05:44:04;9.80;99.90
60039;DHT22;45916;52.734;6.544;2023-04-01T05:46:30;9.80;99.90
60039;DHT22;45916;52.734;6.544;2023-04-01T05:48:56;9.80;99.90
60039;DHT22;45916;52.734;6.544;2023-04-01T05:51:22;9.80;99.90
60039;DHT22;45916;52.734;6.544;2023-04-01T05:53:48;9.90;99.90
60039;DHT22;45916;52.734;6.544;2023-04-01T05:56:14;9.80;99.90
60039;DHT22;45916;52.734;6.544;2023-04-01T05:58:40;9.80;99.90
60039;DHT22;45916;52.734;6.544;2023-04-01T06:01:09;9.80;99.90
60039;DHT22;45916;52.734;6.544;2023-04-01T06:03:35;9.90;99.90
60039;DHT22;45916;52.734;6.544;2023-04-01T06:06:01;9.90;99.90
60039;DHT22;45916;52.734;6.544;2023-04-01T06:08:28;9.90;99.90
60039;DHT22;45916;52.734;6.544;2023-04-01T06:11:03;10.00;99.90
60039;DHT22;45916;52.734;6.544;2023-04-01T06:46:59;10.30;99.90
60039;DHT22;45916;52.734;6.544;2023-04-01T06:55:00;10.50;99.90
60039;DHT22;45916;52.734;6.544;2023-04-01T06:57:38;10.60;99.90
60039;DHT22;45916;52.734;6.544;2023-04-01T07:00:19;10.70;99.90
60039;DHT22;45916;52.734;6.544;2023-04-01T07:05:34;10.80;99.90
60039;DHT22;45916;52.734;6.544;2023-04-01T07:08:12;10.80;99.90
60039;DHT22;45916;52.734;6.544;2023-04-01T07:10:55;10.80;99.90
60039;DHT22;45916;52.734;6.544;2023-04-01T07:13:41;10.80;99.90
60039;DHT22;45916;52.734;6.544;2023-04-01T07:16:33;10.90;99.90
60039;DHT22;45916;52.734;6.544;2023-04-01T07:19:08;10.90;99.90
60039;DHT22;45916;52.734;6.544;2023-04-01T07:21:51;11.00;99.90
60039;DHT22;45916;52.734;6.544;2023-04-01T07:24:25;11.00;99.90
60039;DHT22;45916;52.734;6.544;2023-04-01T07:26:56;11.00;99.90
60039;DHT22;45916;52.734;6.544;2023-04-01T07:29:23;11.10;99.90
60039;DHT22;45916;52.734;6.544;2023-04-01T07:34:34;11.20;99.90
60039;DHT22;45916;52.734;6.544;2023-04-01T07:37:10;11.30;99.90
60039;DHT22;45916;52.734;6.544;2023-04-01T07:48:44;11.40;99.90
60039;DHT22;45916;52.734;6.544;2023-04-01T07:51:35;11.40;99.90
60039;DHT22;45916;52.734;6.544;2023-04-01T07:54:16;11.50;99.90
60039;DHT22;45916;52.734;6.544;2023-04-01T07:59:28;11.60;99.90
60039;DHT22;45916;52.734;6.544;2023-04-01T08:02:25;11.60;99.90
60039;DHT22;45916;52.734;6.544;2023-04-01T08:05:09;11.60;99.90
60039;DHT22;45916;52.734;6.544;2023-04-01T08:10:44;11.70;99.90
60039;DHT22;45916;52.734;6.544;2023-04-01T08:16:26;11.80;99.90
60039;DHT22;45916;52.734;6.544;2023-04-01T08:19:29;11.80;99.90
60039;DHT22;45916;52.734;6.544;2023-04-01T08:21:58;11.90;99.90
60039;DHT22;45916;52.734;6.544;2023-04-01T08:24:45;12.00;99.90
60039;DHT22;45916;52.734;6.544;2023-04-01T08:27:28;12.00;99.90
60039;DHT22;45916;52.734;6.544;2023-04-01T08:30:06;12.00;99.90
60039;DHT22;45916;52.734;6.544;2023-04-01T08:32:44;11.90;99.90
60039;DHT22;45916;52.734;6.544;2023-04-01T08:35:27;11.90;99.90
60039;DHT22;45916;52.734;6.544;2023-04-01T08:37:55;11.80;99.90
60039;DHT22;45916;52.734;6.544;2023-04-01T08:43:50;11.90;99.90
60039;DHT22;45916;52.734;6.544;2023-04-01T08:52:18;12.30;99.90
60039;DHT22;45916;52.734;6.544;2023-04-01T08:55:19;12.40;99.90
60039;DHT22;45916;52.734;6.544;2023-04-01T09:00:37;12.30;99.90
60039;DHT22;45916;52.734;6.544;2023-04-01T09:05:57;12.40;99.90
60039;DHT22;45916;52.734;6.544;2023-04-01T09:15:02;12.50;99.90
60039;DHT22;45916;52.734;6.544;2023-04-01T09:28:38;13.00;99.90
60039;DHT22;45916;52.734;6.544;2023-04-01T09:31:26;13.00;99.90
60039;DHT22;45916;52.734;6.544;2023-04-01T09:36:58;13.30;99.90
60039;DHT22;45916;52.734;6.544;2023-04-01T09:39:37;13.50;99.90
60039;DHT22;45916;52.734;6.544;2023-04-01T09:45:16;13.60;99.90
60039;DHT22;45916;52.734;6.544;2023-04-01T09:50:35;13.30;99.90
60039;DHT22;45916;52.734;6.544;2023-04-01T10:20:59;12.40;99.90
60039;DHT22;45916;52.734;6.544;2023-04-01T10:56:39;13.30;99.90
60039;DHT22;45916;52.734;6.544;2023-04-01T11:07:26;13.30;99.90
60039;DHT22;45916;52.734;6.544;2023-04-01T11:16:09;13.70;99.90
60039;DHT22;45916;52.734;6.544;2023-04-01T11:27:37;13.70;99.90
60039;DHT22;45916;52.734;6.544;2023-04-01T11:33:15;13.80;99.90
60039;DHT22;45916;52.734;6.544;2023-04-01T11:41:56;13.30;99.90
60039;DHT22;45916;52.734;6.544;2023-04-01T11:44:26;13.00;99.90
60039;DHT22;45916;52.734;6.544;2023-04-01T11:49:59;12.70;99.90
60039;DHT22;45916;52.734;6.544;2023-04-01T12:06:36;12.10;99.90
60039;DHT22;45916;52.734;6.544;2023-04-01T12:31:47;11.50;99.90
60039;DHT22;45916;52.734;6.544;2023-04-01T12:37:26;11.20;99.90
60039;DHT22;45916;52.734;6.544;2023-04-01T12:46:36;11.00;99.90
60039;DHT22;45916;52.734;6.544;2023-04-01T12:58:03;10.90;99.90
60039;DHT22;45916;52.734;6.544;2023-04-01T13:03:46;11.00;99.90
60039;DHT22;45916;52.734;6.544;2023-04-01T13:20:13;11.00;99.90
60039;DHT22;45916;52.734;6.544;2023-04-01T13:45:23;11.50;99.90
60039;DHT22;45916;52.734;6.544;2023-04-01T13:48:23;11.60;99.90
60039;DHT22;45916;52.734;6.544;2023-04-01T14:07:37;10.70;99.90
60039;DHT22;45916;52.734;6.544;2023-04-01T14:31:54;10.20;99.90
60039;DHT22;45916;52.734;6.544;2023-04-01T14:34:49;10.20;99.90
60039;DHT22;45916;52.734;6.544;2023-04-01T14:47:58;10.30;99.90
60039;DHT22;45916;52.734;6.544;2023-04-01T14:50:28;10.20;99.90
60039;DHT22;45916;52.734;6.544;2023-04-01T14:55:50;10.30;99.90
60039;DHT22;45916;52.734;6.544;2023-04-01T14:58:18;10.40;99.90
60039;DHT22;45916;52.734;6.544;2023-04-01T15:01:11;10.50;99.90
60039;DHT22;45916;52.734;6.544;2023-04-01T15:09:32;10.50;99.90
60039;DHT22;45916;52.734;6.544;2023-04-01T15:18:09;10.30;99.90
60039;DHT22;45916;52.734;6.544;2023-04-01T15:21:11;10.20;99.90
60039;DHT22;45916;52.734;6.544;2023-04-01T15:26:21;10.10;99.90
60039;DHT22;45916;52.734;6.544;2023-04-01T15:48:45;9.90;99.90
60039;DHT22;45916;52.734;6.544;2023-04-01T16:02:33;9.90;99.90
60039;DHT22;45916;52.734;6.544;2023-04-01T16:11:08;9.70;99.90
60039;DHT22;45916;52.734;6.544;2023-04-01T16:13:59;9.50;99.90
60039;DHT22;45916;52.734;6.544;2023-04-01T16:16:48;9.50;99.90
60039;DHT22;45916;52.734;6.544;2023-04-01T16:19:49;9.50;99.90
60039;DHT22;45916;52.734;6.544;2023-04-01T16:24:56;9.40;99.90
60039;DHT22;45916;52.734;6.544;2023-04-01T16:27:50;9.30;99.90
60039;DHT22;45916;52.734;6.544;2023-04-01T16:30:38;9.30;99.90
60039;DHT22;45916;52.734;6.544;2023-04-01T16:35:59;9.20;99.90
60039;DHT22;45916;52.734;6.544;2023-04-01T16:38:40;9.10;99.90
60039;DHT22;45916;52.734;6.544;2023-04-01T16:41:27;9.10;99.90
60039;DHT22;45916;52.734;6.544;2023-04-01T16:44:17;9.10;99.90
60039;DHT22;45916;52.734;6.544;2023-04-01T16:46:49;9.00;99.90
60039;DHT22;45916;52.734;6.544;2023-04-01T16:49:30;9.00;99.90
60039;DHT22;45916;52.734;6.544;2023-04-01T17:02:49;8.70;99.90
60039;DHT22;45916;52.734;6.544;2023-04-01T17:05:17;8.70;99.90
60039;DHT22;45916;52.734;6.544;2023-04-01T17:08:15;8.70;99.90
60039;DHT22;45916;52.734;6.544;2023-04-01T17:14:00;8.60;99.90
60039;DHT22;45916;52.734;6.544;2023-04-01T17:19:54;8.50;99.90
60039;DHT22;45916;52.734;6.544;2023-04-01T17:47:47;8.10;99.90
60039;DHT22;45916;52.734;6.544;2023-04-01T17:50:45;8.00;99.90
60039;DHT22;45916;52.734;6.544;2023-04-01T17:58:18;7.90;99.90
60039;DHT22;45916;52.734;6.544;2023-04-01T18:01:09;7.90;99.90
60039;DHT22;45916;52.734;6.544;2023-04-01T18:07:52;7.90;99.90
60039;DHT22;45916;52.734;6.544;2023-04-01T18:26:03;7.60;99.90
60039;DHT22;45916;52.734;6.544;2023-04-01T18:28:43;7.60;99.90
60039;DHT22;45916;52.734;6.544;2023-04-01T18:31:18;7.60;99.90
60039;DHT22;45916;52.734;6.544;2023-04-01T18:52:43;7.40;99.90
60039;DHT22;45916;52.734;6.544;2023-04-01T18:57:53;7.30;99.90
60039;DHT22;45916;52.734;6.544;2023-04-01T19:00:32;7.30;99.90
60039;DHT22;45916;52.734;6.544;2023-04-01T19:05:43;7.20;99.90
60039;DHT22;45916;52.734;6.544;2023-04-01T19:10:53;7.10;99.90
60039;DHT22;45916;52.734;6.544;2023-04-01T19:13:23;7.10;99.90
60039;DHT22;45916;52.734;6.544;2023-04-01T19:17:00;7.10;99.90
60039;DHT22;45916;52.734;6.544;2023-04-01T19:19:18;7.10;99.90
60039;DHT22;45916;52.734;6.544;2023-04-01T19:27:47;7.00;99.90
60039;DHT22;45916;52.734;6.544;2023-04-01T19:33:24;7.00;99.90
60039;DHT22;45916;52.734;6.544;2023-04-01T19:36:14;7.00;99.90
60039;DHT22;45916;52.734;6.544;2023-04-01T19:41:57;6.90;99.90
60039;DHT22;45916;52.734;6.544;2023-04-01T19:44:58;6.90;99.90
60039;DHT22;45916;52.734;6.544;2023-04-01T19:50:37;6.90;99.90
60039;DHT22;45916;52.734;6.544;2023-04-01T19:56:19;6.90;99.90
60039;DHT22;45916;52.734;6.544;2023-04-01T19:58:54;6.80;99.90
60039;DHT22;45916;52.734;6.544;2023-04-01T20:01:27;6.80;99.90
60039;DHT22;45916;52.734;6.544;2023-04-01T20:04:13;6.80;99.90
60039;DHT22;45916;52.734;6.544;2023-04-01T20:15:22;6.70;99.90
60039;DHT22;45916;52.734;6.544;2023-04-01T20:17:54;6.70;99.90
60039;DHT22;45916;52.734;6.544;2023-04-01T20:20:24;6.70;99.90
60039;DHT22;45916;52.734;6.544;2023-04-01T20:26:02;6.60;99.90
60039;DHT22;45916;52.734;6.544;2023-04-01T20:28:43;6.60;99.90
60039;DHT22;45916;52.734;6.544;2023-04-01T20:31:36;6.60;99.90
60039;DHT22;45916;52.734;6.544;2023-04-01T20:37:10;6.60;99.90
60039;DHT22;45916;52.734;6.544;2023-04-01T20:51:04;6.50;99.90
60039;DHT22;45916;52.734;6.544;2023-04-01T20:53:43;6.50;99.90
60039;DHT22;45916;52.734;6.544;2023-04-01T21:07:34;6.30;99.90
60039;DHT22;45916;52.734;6.544;2023-04-01T21:19:07;6.20;99.90
60039;DHT22;45916;52.734;6.544;2023-04-01T21:24:23;6.20;99.90
60039;DHT22;45916;52.734;6.544;2023-04-01T22:09:18;6.00;99.90
60039;DHT22;45916;52.734;6.544;2023-04-01T22:11:54;6.00;99.90
60039;DHT22;45916;52.734;6.544;2023-04-01T22:20:04;5.90;99.90
60039;DHT22;45916;52.734;6.544;2023-04-01T22:28:21;5.90;99.90
60039;DHT22;45916;52.734;6.544;2023-04-01T22:30:51;5.90;99.90
60039;DHT22;45916;52.734;6.544;2023-04-01T22:33:31;5.90;99.90
60039;DHT22;45916;52.734;6.544;2023-04-01T22:39:22;5.80;99.90
60039;DHT22;45916;52.734;6.544;2023-04-01T22:56:00;5.80;99.90
60039;DHT22;45916;52.734;6.544;2023-04-01T22:58:40;5.70;99.90
60039;DHT22;45916;52.734;6.544;2023-04-01T23:01:12;5.70;99.90
60039;DHT22;45916;52.734;6.544;2023-04-01T23:03:41;5.70;99.90
60039;DHT22;45916;52.734;6.544;2023-04-01T23:06:15;5.70;99.90
60039;DHT22;45916;52.734;6.544;2023-04-01T23:11:26;5.60;99.90
60039;DHT22;45916;52.734;6.544;2023-04-01T23:27:45;5.50;99.90
60039;DHT22;45916;52.734;6.544;2023-04-01T23:33:20;5.50;99.90
60039;DHT22;45916;52.734;6.544;2023-04-01T23:35:52;5.50;99.90
60039;DHT22;45916;52.734;6.544;2023-04-01T23:38:21;5.40;99.90
60039;DHT22;45916;52.734;6.544;2023-04-01T23:40:49;5.40;99.90
60039;DHT22;45916;52.734;6.544;2023-04-01T23:43:26;5.40;99.90
60039;DHT22;45916;52.734;6.544;2023-04-01T23:45:57;5.30;99.90
60039;DHT22;45916;52.734;6.544;2023-04-01T23:48:45;5.30;99.90
60039;DHT22;45916;52.734;6.544;2023-04-01T23:51:38;5.20;99.90
60039;DHT22;45916;52.734;6.544;2023-04-01T23:54:17;5.20;99.90
60039;DHT22;45916;52.734;6.544;2023-04-01T23:56:46;5.20;99.90
60039;DHT22;45916;52.734;6.544;2023-04-01T23:59:27;5.10;99.90
